createdAt,value
2019-05-13T00:01:14.401Z,102557.80
2019-05-13T00:03:20.915Z,102555.61
2019-05-13T00:05:27.362Z,102556.92
2019-05-13T00:07:34.245Z,102551.70
2019-05-13T00:09:44.110Z,102554.31
2019-05-13T00:11:49.637Z,102547.32
2019-05-13T00:13:56.016Z,102556.92
2019-05-13T00:16:04.728Z,102548.66
2019-05-13T00:18:11.288Z,102546.05
2019-05-13T00:20:18.185Z,102555.22
2019-05-13T00:22:24.848Z,102541.25
2019-05-13T00:24:33.683Z,102549.97
2019-05-13T00:26:39.390Z,102548.66
2019-05-13T00:28:45.752Z,102551.70
2019-05-13T00:30:54.274Z,102553.46
2019-05-13T00:33:03.750Z,102551.27
2019-05-13T00:35:10.068Z,102557.38
2019-05-13T00:37:17.557Z,102561.72
2019-05-13T00:39:24.681Z,102557.80
2019-05-13T00:41:33.168Z,102557.38
2019-05-13T00:43:39.517Z,102549.97
2019-05-13T00:45:46.805Z,102550.39
2019-05-13T00:47:53.762Z,102557.77
2019-05-13T00:50:00.354Z,102556.00
2019-05-13T00:52:07.343Z,102557.31
2019-05-13T00:54:13.797Z,102552.05
2019-05-13T00:56:20.157Z,102554.24
2019-05-13T00:58:26.518Z,102550.75
2019-05-13T01:00:34.204Z,102548.10
2019-05-13T01:02:44.503Z,102550.29
2019-05-13T01:04:50.630Z,102550.26
2019-05-13T01:06:57.088Z,102547.19
2019-05-13T01:09:05.815Z,102538.47
2019-05-13T01:11:13.306Z,102539.71
2019-05-13T01:13:19.660Z,102542.74
2019-05-13T01:15:26.232Z,102541.83
2019-05-13T01:17:34.098Z,102539.60
2019-05-13T01:19:43.337Z,102544.79
2019-05-13T01:21:49.713Z,102546.09
2019-05-13T01:23:56.284Z,102549.09
2019-05-13T01:26:03.887Z,102544.68
2019-05-13T01:28:10.781Z,102547.70
2019-05-13T01:30:19.159Z,102545.91
2019-05-13T01:32:25.731Z,102549.78
2019-05-13T01:34:33.950Z,102541.45
2019-05-13T01:36:40.606Z,102544.87
2019-05-13T01:38:46.968Z,102553.96
2019-05-13T01:40:53.961Z,102552.58
2019-05-13T01:43:00.609Z,102563.86
2019-05-13T01:45:10.351Z,102558.59
2019-05-13T01:47:16.718Z,102556.84
2019-05-13T01:49:24.162Z,102555.98
2019-05-13T01:51:30.668Z,102552.88
2019-05-13T01:53:37.037Z,102558.48
2019-05-13T01:55:44.234Z,102560.19
2019-05-13T01:57:53.314Z,102564.11
2019-05-13T01:59:59.897Z,102566.71
2019-05-13T02:02:06.961Z,102568.86
2019-05-13T02:04:14.176Z,102573.16
2019-05-13T02:06:20.940Z,102574.91
2019-05-13T02:08:27.368Z,102570.08
2019-05-13T02:10:53.982Z,102572.27
2019-05-13T02:12:59.488Z,102571.38
2019-05-13T02:15:08.876Z,102571.38
2019-05-13T02:17:15.379Z,102573.11
2019-05-13T02:19:24.295Z,102580.13
2019-05-13T02:21:30.139Z,102578.79
2019-05-13T02:23:36.728Z,102583.16
2019-05-13T02:25:43.570Z,102582.37
2019-05-13T02:27:49.966Z,102578.45
2019-05-13T02:29:57.101Z,102575.01
2019-05-13T02:32:03.519Z,102574.16
2019-05-13T02:34:13.365Z,102571.14
2019-05-13T02:36:17.971Z,102570.30
2019-05-13T02:38:30.109Z,102573.37
2019-05-13T02:40:33.250Z,102577.28
2019-05-13T02:42:43.238Z,102579.01
2019-05-13T02:44:52.741Z,102580.73
2019-05-13T02:46:56.942Z,102573.75
2019-05-13T02:49:03.642Z,102571.59
2019-05-13T02:51:12.421Z,102574.62
2019-05-13T02:53:18.182Z,102572.44
2019-05-13T02:55:26.100Z,102576.27
2019-05-13T02:57:32.948Z,102575.84
2019-05-13T02:59:42.237Z,102579.67
2019-05-13T03:01:48.854Z,102581.86
2019-05-13T03:03:56.356Z,102584.01
2019-05-13T03:06:03.375Z,102585.77
2019-05-13T03:08:12.792Z,102581.86
2019-05-13T03:10:18.453Z,102582.74
2019-05-13T03:12:24.865Z,102577.95
2019-05-13T03:14:32.386Z,102578.83
2019-05-13T03:16:55.717Z,102580.98
2019-05-13T03:19:02.957Z,102581.81
2019-05-13T03:21:12.582Z,102585.34
2019-05-13T03:23:17.368Z,102577.02
2019-05-13T03:25:24.243Z,102575.30
2019-05-13T03:27:33.840Z,102583.55
2019-05-13T03:29:38.501Z,102581.86
2019-05-13T03:31:46.864Z,102578.92
2019-05-13T03:33:56.518Z,102576.39
2019-05-13T03:36:06.222Z,102574.21
2019-05-13T03:38:12.813Z,102579.55
2019-05-13T03:40:22.757Z,102580.91
2019-05-13T03:42:28.361Z,102589.78
2019-05-13T03:44:35.540Z,102581.48
2019-05-13T03:46:43.444Z,102587.28
2019-05-13T03:48:54.722Z,102591.36
2019-05-13T03:51:03.841Z,102595.84
2019-05-13T03:53:12.650Z,102597.34
2019-05-13T03:55:23.196Z,102601.17
2019-05-13T03:57:33.733Z,102599.50
2019-05-13T03:59:43.340Z,102603.72
2019-05-13T04:01:52.412Z,102601.14
2019-05-13T04:03:58.295Z,102607.73
2019-05-13T04:06:05.066Z,102609.80
2019-05-13T04:08:13.271Z,102615.55
2019-05-13T04:10:23.011Z,102616.34
2019-05-13T04:12:28.685Z,102616.25
2019-05-13T04:14:35.209Z,102621.84
2019-05-13T04:16:42.865Z,102624.33
2019-05-13T04:18:53.202Z,102626.34
2019-05-13T04:20:57.487Z,102621.05
2019-05-13T04:23:05.501Z,102615.07
2019-05-13T04:25:13.084Z,102622.35
2019-05-13T04:27:22.993Z,102619.42
2019-05-13T04:29:27.867Z,102622.05
2019-05-13T04:31:34.219Z,102621.05
2019-05-13T04:33:42.612Z,102615.75
2019-05-13T04:35:52.950Z,102616.75
2019-05-13T04:38:02.995Z,102610.46
2019-05-13T04:40:12.485Z,102605.55
2019-05-13T04:42:18.110Z,102607.15
2019-05-13T04:44:25.131Z,102610.50
2019-05-13T04:46:32.939Z,102610.46
2019-05-13T04:48:43.922Z,102602.83
2019-05-13T04:50:47.877Z,102600.92
2019-05-13T04:52:54.811Z,102607.17
2019-05-13T04:55:03.365Z,102608.49
2019-05-13T04:57:12.380Z,102610.67
2019-05-13T04:59:18.033Z,102609.69
2019-05-13T05:01:55.340Z,102611.54
2019-05-13T05:04:28.848Z,102608.36
2019-05-13T05:07:06.000Z,102601.80
2019-05-13T05:09:40.354Z,102600.36
2019-05-13T05:12:12.433Z,102606.29
2019-05-13T05:14:36.984Z,102604.86
2019-05-13T05:17:25.640Z,102604.69
2019-05-13T05:19:52.450Z,102608.89
2019-05-13T05:22:09.285Z,102615.92
2019-05-13T05:24:41.556Z,102613.28
2019-05-13T05:27:07.477Z,102615.86
2019-05-13T05:29:48.750Z,102615.00
2019-05-13T05:32:44.569Z,102622.41
2019-05-13T05:35:11.987Z,102621.88
2019-05-13T05:37:57.729Z,102620.13
2019-05-13T05:40:05.708Z,102616.67
2019-05-13T05:42:16.068Z,102619.30
2019-05-13T05:44:26.989Z,102622.39
2019-05-13T05:46:34.645Z,102623.27
2019-05-13T05:48:44.150Z,102622.87
2019-05-13T05:50:55.053Z,102622.05
2019-05-13T05:53:04.960Z,102622.87
2019-05-13T05:55:11.749Z,102625.53
2019-05-13T05:57:22.475Z,102626.41
2019-05-13T05:59:32.049Z,102629.44
2019-05-13T06:01:41.729Z,102628.59
2019-05-13T06:03:48.487Z,102625.96
2019-05-13T06:05:56.372Z,102627.74
2019-05-13T06:08:02.933Z,102626.44
2019-05-13T06:10:11.473Z,102633.44
2019-05-13T06:12:21.227Z,102635.67
2019-05-13T06:14:27.048Z,102633.45
2019-05-13T06:16:33.477Z,102640.48
2019-05-13T06:18:41.558Z,102636.53
2019-05-13T06:20:48.255Z,102644.86
2019-05-13T06:22:54.728Z,102645.30
2019-05-13T06:25:01.517Z,102643.11
2019-05-13T06:27:11.690Z,102643.06
2019-05-13T06:29:18.138Z,102639.11
2019-05-13T06:31:24.913Z,102643.47
2019-05-13T06:33:32.188Z,102640.39
2019-05-13T06:35:41.704Z,102639.08
2019-05-13T06:37:48.191Z,102641.70
2019-05-13T06:39:56.409Z,102647.40
2019-05-13T06:42:03.196Z,102647.39
2019-05-13T06:44:11.981Z,102648.30
2019-05-13T06:46:17.533Z,102649.63
2019-05-13T06:48:24.103Z,102650.06
2019-05-13T06:50:32.378Z,102650.94
2019-05-13T06:52:42.282Z,102644.80
2019-05-13T06:54:48.103Z,102650.08
2019-05-13T06:56:54.473Z,102652.26
2019-05-13T06:59:01.480Z,102655.72
2019-05-13T07:01:11.403Z,102659.24
2019-05-13T07:03:16.862Z,102657.91
2019-05-13T07:05:23.299Z,102651.72
2019-05-13T07:07:31.720Z,102654.81
2019-05-13T07:09:37.792Z,102656.14
2019-05-13T07:11:45.171Z,102655.27
2019-05-13T07:13:51.792Z,102653.41
2019-05-13T07:15:58.183Z,102657.33
2019-05-13T07:18:04.564Z,102657.22
2019-05-13T07:20:11.762Z,102665.67
2019-05-13T07:22:22.710Z,102656.94
2019-05-13T07:24:27.510Z,102658.27
2019-05-13T07:26:33.941Z,102658.28
2019-05-13T07:28:42.921Z,102657.79
2019-05-13T07:30:51.600Z,102654.70
2019-05-13T07:33:01.614Z,102658.56
2019-05-13T07:35:08.492Z,102671.66
2019-05-13T07:37:16.057Z,102669.07
2019-05-13T07:39:22.814Z,102664.69
2019-05-13T07:41:36.446Z,102672.59
2019-05-13T07:43:37.425Z,102673.73
2019-05-13T07:45:43.746Z,102674.77
2019-05-13T07:47:52.142Z,102672.06
2019-05-13T07:49:58.623Z,102671.77
2019-05-13T07:52:06.424Z,102670.97
2019-05-13T07:54:14.393Z,102679.70
2019-05-13T07:56:22.611Z,102670.93
2019-05-13T07:58:34.365Z,102668.27
2019-05-13T08:00:38.237Z,102672.14
2019-05-13T08:02:45.023Z,102669.08
2019-05-13T08:04:52.967Z,102669.05
2019-05-13T08:07:01.905Z,102675.19
2019-05-13T08:09:12.530Z,102674.21
2019-05-13T08:11:18.788Z,102675.45
2019-05-13T08:13:25.291Z,102674.97
2019-05-13T08:15:31.803Z,102681.88
2019-05-13T08:17:44.617Z,102684.98
2019-05-13T08:19:52.055Z,102684.20
2019-05-13T08:22:01.852Z,102683.64
2019-05-13T08:24:07.764Z,102684.98
2019-05-13T08:26:14.237Z,102682.33
2019-05-13T08:28:22.783Z,102692.25
2019-05-13T08:30:31.876Z,102692.32
2019-05-13T08:32:41.948Z,102689.77
2019-05-13T08:34:52.542Z,102694.20
2019-05-13T08:36:58.756Z,102694.73
2019-05-13T08:39:12.816Z,102702.91
2019-05-13T08:41:23.293Z,102686.72
2019-05-13T08:43:31.470Z,102694.52
2019-05-13T08:45:41.886Z,102687.30
2019-05-13T08:47:47.712Z,102690.98
2019-05-13T08:49:54.035Z,102694.87
2019-05-13T08:52:01.570Z,102697.80
2019-05-13T08:54:11.707Z,102696.06
2019-05-13T08:56:21.744Z,102701.39
2019-05-13T08:58:29.106Z,102705.94
2019-05-13T09:00:53.886Z,102699.14
2019-05-13T09:03:01.713Z,102705.17
2019-05-13T09:05:11.886Z,102693.53
2019-05-13T09:07:20.740Z,102694.84
2019-05-13T09:09:25.477Z,102699.20
2019-05-13T09:11:32.076Z,102712.36
2019-05-13T09:13:38.724Z,102707.20
2019-05-13T09:15:46.956Z,102710.79
2019-05-13T09:17:53.291Z,102702.91
2019-05-13T09:20:02.521Z,102715.19
2019-05-13T09:22:08.157Z,102707.79
2019-05-13T09:24:25.351Z,102717.87
2019-05-13T09:26:22.744Z,102711.67
2019-05-13T09:28:29.315Z,102710.44
2019-05-13T09:30:36.773Z,102713.05
2019-05-13T09:32:43.060Z,102713.92
2019-05-13T09:34:52.227Z,102717.91
2019-05-13T09:37:03.006Z,102723.21
2019-05-13T09:39:16.954Z,102710.66
2019-05-13T09:41:23.676Z,102714.34
2019-05-13T09:43:54.451Z,102715.17
2019-05-13T09:46:02.795Z,102716.38
2019-05-13T09:48:15.095Z,102714.69
2019-05-13T09:50:31.483Z,102716.08
2019-05-13T09:52:32.865Z,102714.73
2019-05-13T09:54:45.891Z,102714.83
2019-05-13T09:56:55.512Z,102718.13
2019-05-13T09:59:02.350Z,102709.67
2019-05-13T10:01:08.772Z,102719.75
2019-05-13T10:03:15.315Z,102716.59
2019-05-13T10:05:22.530Z,102721.04
2019-05-13T10:07:31.555Z,102710.03
2019-05-13T10:09:39.143Z,102705.11
2019-05-13T10:11:45.602Z,102700.66
2019-05-13T10:13:52.268Z,102704.08
2019-05-13T10:15:59.341Z,102697.01
2019-05-13T10:18:06.287Z,102694.44
2019-05-13T10:20:13.401Z,102699.48
2019-05-13T10:22:21.841Z,102699.55
2019-05-13T10:24:27.859Z,102702.56
2019-05-13T10:26:35.007Z,102698.33
2019-05-13T10:28:44.994Z,102699.77
2019-05-13T10:30:53.209Z,102699.55
2019-05-13T10:33:02.684Z,102698.83
2019-05-13T10:35:10.451Z,102700.45
2019-05-13T10:37:18.805Z,102706.94
2019-05-13T10:39:25.472Z,102699.20
2019-05-13T10:41:33.520Z,102705.64
2019-05-13T10:43:44.351Z,102706.22
2019-05-13T10:45:52.248Z,102715.80
2019-05-13T10:47:57.727Z,102715.00
2019-05-13T10:50:07.310Z,102710.86
2019-05-13T10:52:13.705Z,102711.48
2019-05-13T10:54:21.790Z,102703.16
2019-05-13T10:56:32.736Z,102707.21
2019-05-13T10:58:38.041Z,102709.03
2019-05-13T11:00:55.146Z,102697.67
2019-05-13T11:03:01.621Z,102695.69
2019-05-13T11:05:08.217Z,102699.91
2019-05-13T11:07:14.954Z,102700.39
2019-05-13T11:09:22.165Z,102710.42
2019-05-13T11:11:33.058Z,102702.25
2019-05-13T11:13:52.196Z,102703.53
2019-05-13T11:15:48.449Z,102712.44
2019-05-13T11:17:55.444Z,102697.33
2019-05-13T11:20:03.425Z,102696.23
2019-05-13T11:22:12.420Z,102697.23
2019-05-13T11:24:19.062Z,102708.16
2019-05-13T11:26:25.805Z,102704.67
2019-05-13T11:28:32.414Z,102705.68
2019-05-13T11:30:39.360Z,102700.63
2019-05-13T11:32:46.955Z,102699.84
2019-05-13T11:34:53.497Z,102694.17
2019-05-13T11:37:03.272Z,102689.97
2019-05-13T11:39:12.675Z,102690.11
2019-05-13T11:41:17.344Z,102690.89
2019-05-13T11:43:27.967Z,102686.52
2019-05-13T11:45:31.788Z,102698.66
2019-05-13T11:47:41.503Z,102686.72
2019-05-13T11:49:51.344Z,102684.17
2019-05-13T11:51:56.942Z,102691.21
2019-05-13T11:54:05.036Z,102675.93
2019-05-13T11:56:12.198Z,102676.22
2019-05-13T11:58:20.621Z,102671.66
2019-05-13T12:00:53.176Z,102677.76
2019-05-13T12:02:58.643Z,102665.20
2019-05-13T12:05:07.425Z,102669.28
2019-05-13T12:07:14.956Z,102673.14
2019-05-13T12:09:22.235Z,102670.65
2019-05-13T12:11:33.308Z,102664.77
2019-05-13T12:13:42.612Z,102673.87
2019-05-13T12:15:50.045Z,102667.75
2019-05-13T12:17:59.429Z,102664.28
2019-05-13T12:20:12.015Z,102663.52
2019-05-13T12:22:17.199Z,102654.66
2019-05-13T12:24:23.957Z,102655.55
2019-05-13T12:26:33.247Z,102662.03
2019-05-13T12:28:41.527Z,102656.45
2019-05-13T12:30:47.917Z,102647.98
2019-05-13T12:32:54.879Z,102647.41
2019-05-13T12:35:03.627Z,102638.81
2019-05-13T12:37:12.313Z,102632.83
2019-05-13T12:39:19.082Z,102633.27
2019-05-13T12:41:26.764Z,102629.56
2019-05-13T12:43:33.649Z,102632.70
2019-05-13T12:45:43.190Z,102619.25
2019-05-13T12:47:48.413Z,102629.63
2019-05-13T12:49:55.692Z,102630.76
2019-05-13T12:52:04.647Z,102628.17
2019-05-13T12:54:13.572Z,102628.51
2019-05-13T12:56:18.575Z,102614.31
2019-05-13T12:58:26.878Z,102622.80
2019-05-13T13:00:33.565Z,102617.93
2019-05-13T13:02:40.069Z,102622.52
2019-05-13T13:05:07.881Z,102620.03
2019-05-13T13:06:55.147Z,102623.75
2019-05-13T13:09:02.718Z,102627.57
2019-05-13T13:11:09.620Z,102627.27
2019-05-13T13:13:16.111Z,102626.19
2019-05-13T13:15:37.191Z,102624.47
2019-05-13T13:17:34.687Z,102626.59
2019-05-13T13:19:41.749Z,102630.06
2019-05-13T13:22:12.959Z,102626.07
2019-05-13T13:24:17.296Z,102624.27
2019-05-13T13:26:24.415Z,102630.46
2019-05-13T13:28:33.957Z,102623.44
2019-05-13T13:30:39.675Z,102625.54
2019-05-13T13:32:46.881Z,102626.34
2019-05-13T13:34:54.825Z,102623.39
2019-05-13T13:37:05.008Z,102616.94
2019-05-13T13:39:14.749Z,102616.48
2019-05-13T13:41:22.730Z,102619.91
2019-05-13T13:43:28.725Z,102612.66
2019-05-13T13:46:06.104Z,102610.05
2019-05-13T13:47:45.795Z,102602.31
2019-05-13T13:49:54.920Z,102597.80
2019-05-13T13:52:02.624Z,102593.66
2019-05-13T13:54:09.335Z,102593.44
2019-05-13T13:56:17.354Z,102584.14
2019-05-13T13:58:25.630Z,102590.84
2019-05-13T14:00:46.008Z,102597.68
2019-05-13T14:02:43.196Z,102599.30
2019-05-13T14:04:54.375Z,102607.25
2019-05-13T14:07:22.030Z,102607.59
2019-05-13T14:09:12.012Z,102602.08
2019-05-13T14:11:19.249Z,102603.53
2019-05-13T14:13:25.976Z,102612.69
2019-05-13T14:15:34.537Z,102605.16
2019-05-13T14:17:42.477Z,102623.54
2019-05-13T14:19:52.576Z,102608.60
2019-05-13T14:22:01.107Z,102613.80
2019-05-13T14:24:07.803Z,102619.95
2019-05-13T14:26:14.475Z,102614.65
2019-05-13T14:28:23.172Z,102611.71
2019-05-13T14:30:31.366Z,102610.99
2019-05-13T14:32:38.076Z,102614.20
2019-05-13T14:34:45.714Z,102615.19
2019-05-13T14:36:52.520Z,102614.36
2019-05-13T14:39:02.841Z,102610.16
2019-05-13T14:41:12.386Z,102616.87
2019-05-13T14:43:19.542Z,102607.20
2019-05-13T14:45:26.953Z,102607.92
2019-05-13T14:47:35.362Z,102607.73
2019-05-13T14:49:46.083Z,102606.77
2019-05-13T14:51:56.411Z,102609.23
2019-05-13T14:54:06.882Z,102610.59
2019-05-13T14:56:14.671Z,102606.14
2019-05-13T14:58:21.904Z,102607.51
2019-05-13T15:00:32.502Z,102593.93
2019-05-13T15:02:38.374Z,102603.85
2019-05-13T15:04:46.050Z,102611.03
2019-05-13T15:09:34.922Z,102606.95
2019-05-13T15:11:42.039Z,102605.67
2019-05-13T15:16:01.424Z,102617.31
2019-05-13T15:18:08.040Z,102617.64
2019-05-13T15:20:17.802Z,102607.48
2019-05-13T15:22:24.431Z,102617.76
2019-05-13T15:24:32.308Z,102614.65
2019-05-13T15:26:42.169Z,102619.89
2019-05-13T15:28:51.149Z,102610.66
2019-05-13T15:30:58.020Z,102610.52
2019-05-13T15:33:08.051Z,102612.34
2019-05-13T15:35:15.179Z,102608.75
2019-05-13T15:37:21.839Z,102606.00
2019-05-13T15:39:28.303Z,102608.41
2019-05-13T15:41:35.563Z,102603.17
2019-05-13T15:43:42.563Z,102611.60
2019-05-13T15:45:51.419Z,102604.66
2019-05-13T15:47:59.242Z,102602.45
2019-05-13T15:50:09.000Z,102590.55
2019-05-13T15:52:15.762Z,102598.14
2019-05-13T15:54:23.238Z,102600.92
2019-05-13T15:56:31.448Z,102609.78
2019-05-13T15:58:39.694Z,102603.19
2019-05-13T16:00:46.556Z,102596.30
2019-05-13T16:02:53.322Z,102604.17
2019-05-13T16:05:02.214Z,102605.19
2019-05-13T16:07:09.204Z,102598.57
2019-05-13T16:09:15.631Z,102599.55
2019-05-13T16:11:23.729Z,102598.27
2019-05-13T16:13:31.268Z,102590.42
2019-05-13T16:15:41.616Z,102606.31
2019-05-13T16:17:51.947Z,102603.30
2019-05-13T16:20:01.946Z,102603.82
2019-05-13T16:22:08.539Z,102606.04
2019-05-13T16:24:14.990Z,102608.70
2019-05-13T16:26:22.701Z,102602.58
2019-05-13T16:28:32.675Z,102605.66
2019-05-13T16:30:42.605Z,102608.73
2019-05-13T16:32:52.082Z,102604.80
2019-05-13T16:34:59.028Z,102606.22
2019-05-13T16:37:05.975Z,102606.61
2019-05-13T16:39:12.584Z,102606.23
2019-05-13T16:41:19.360Z,102606.23
2019-05-13T16:43:26.061Z,102614.13
2019-05-13T16:45:34.423Z,102613.70
2019-05-13T16:47:56.592Z,102611.08
2019-05-13T16:49:53.069Z,102621.28
2019-05-13T16:52:02.319Z,102622.64
2019-05-13T16:54:08.119Z,102617.00
2019-05-13T16:56:26.683Z,102612.65
2019-05-13T16:58:25.154Z,102621.89
2019-05-13T17:00:32.082Z,102621.02
2019-05-13T17:02:42.061Z,102617.55
2019-05-13T17:04:51.843Z,102617.55
2019-05-13T17:07:01.325Z,102622.37
2019-05-13T17:09:08.356Z,102619.75
2019-05-13T17:11:15.269Z,102619.73
2019-05-13T17:13:22.855Z,102630.30
2019-05-13T17:15:31.243Z,102620.22
2019-05-13T17:17:38.289Z,102632.50
2019-05-13T17:19:45.393Z,102626.37
2019-05-13T17:21:52.435Z,102629.91
2019-05-13T17:24:01.389Z,102626.82
2019-05-13T17:26:07.737Z,102626.86
2019-05-13T17:28:14.116Z,102633.85
2019-05-13T17:30:22.041Z,102629.03
2019-05-13T17:32:29.356Z,102625.12
2019-05-13T17:34:36.284Z,102627.73
2019-05-13T17:36:43.880Z,102621.62
2019-05-13T17:38:50.545Z,102628.64
2019-05-13T17:40:57.636Z,102620.77
2019-05-13T17:43:04.238Z,102627.78
2019-05-13T17:45:11.568Z,102638.27
2019-05-13T17:47:21.730Z,102632.14
2019-05-13T17:49:28.075Z,102631.26
2019-05-13T17:51:34.756Z,102640.02
2019-05-13T17:53:45.922Z,102644.39
2019-05-13T17:55:52.725Z,102644.85
2019-05-13T17:58:01.264Z,102637.41
2019-05-13T18:00:09.728Z,102649.21
2019-05-13T18:02:18.098Z,102644.84
2019-05-13T18:04:24.696Z,102652.72
2019-05-13T18:06:31.318Z,102648.32
2019-05-13T18:08:41.205Z,102658.83
2019-05-13T18:10:51.411Z,102661.88
2019-05-13T18:12:58.624Z,102665.80
2019-05-13T18:15:07.685Z,102669.72
2019-05-13T18:17:14.444Z,102672.78
2019-05-13T18:19:22.120Z,102675.40
2019-05-13T18:21:38.655Z,102671.45
2019-05-13T18:23:48.045Z,102671.88
2019-05-13T18:25:55.005Z,102677.97
2019-05-13T18:28:02.041Z,102679.70
2019-05-13T18:30:11.420Z,102673.11
2019-05-13T18:32:21.257Z,102680.55
2019-05-13T18:34:28.894Z,102679.62
2019-05-13T18:36:36.151Z,102679.62
2019-05-13T18:38:42.960Z,102685.72
2019-05-13T18:40:49.441Z,102686.59
2019-05-13T18:42:57.547Z,102685.70
2019-05-13T18:45:06.232Z,102686.56
2019-05-13T18:47:13.243Z,102685.23
2019-05-13T18:49:21.095Z,102691.80
2019-05-13T18:51:28.021Z,102693.96
2019-05-13T18:53:34.849Z,102688.70
2019-05-13T18:55:42.490Z,102693.08
2019-05-13T18:57:51.834Z,102693.96
2019-05-13T18:59:58.074Z,102689.58
2019-05-13T19:02:04.781Z,102687.39
2019-05-13T19:04:11.732Z,102686.94
2019-05-13T19:06:22.203Z,102682.57
2019-05-13T19:08:37.210Z,102686.52
2019-05-13T19:10:44.076Z,102686.48
2019-05-13T19:12:50.816Z,102689.10
2019-05-13T19:14:58.923Z,102685.16
2019-05-13T19:17:05.837Z,102683.86
2019-05-13T19:19:16.317Z,102686.47
2019-05-13T19:21:22.274Z,102686.89
2019-05-13T19:23:31.329Z,102684.28
2019-05-13T19:25:39.999Z,102681.23
2019-05-13T19:27:46.481Z,102682.95
2019-05-13T19:29:53.060Z,102679.88
2019-05-13T19:32:01.812Z,102679.44
2019-05-13T19:34:08.350Z,102679.87
2019-05-13T19:36:16.590Z,102679.87
2019-05-13T19:38:23.195Z,102685.55
2019-05-13T19:40:34.167Z,102677.67
2019-05-13T19:42:41.863Z,102677.65
2019-05-13T19:44:51.533Z,102673.70
2019-05-13T19:46:58.084Z,102677.19
2019-05-13T19:49:06.298Z,102675.85
2019-05-13T19:51:12.750Z,102677.58
2019-05-13T19:53:20.982Z,102674.52
2019-05-13T19:55:27.665Z,102677.56
2019-05-13T19:57:34.460Z,102677.09
2019-05-13T19:59:42.634Z,102681.86
2019-05-13T20:01:51.618Z,102682.30
2019-05-13T20:03:58.185Z,102679.66
2019-05-13T20:06:05.155Z,102678.34
2019-05-13T20:08:11.886Z,102674.84
2019-05-13T20:10:19.037Z,102674.39
2019-05-13T20:12:27.303Z,102672.63
2019-05-13T20:14:33.783Z,102673.95
2019-05-13T20:16:41.737Z,102677.45
2019-05-13T20:18:48.455Z,102672.21
2019-05-13T20:20:55.056Z,102673.52
2019-05-13T20:23:02.941Z,102669.59
2019-05-13T20:25:13.136Z,102671.33
2019-05-13T20:27:34.393Z,102667.41
2019-05-13T20:29:43.495Z,102677.45
2019-05-13T20:31:51.854Z,102674.41
2019-05-13T20:34:01.520Z,102676.14
2019-05-13T20:36:11.755Z,102668.28
2019-05-13T20:38:17.837Z,102677.87
2019-05-13T20:40:24.554Z,102669.59
2019-05-13T20:42:33.175Z,102671.32
2019-05-13T20:44:41.983Z,102670.45
2019-05-13T20:46:51.672Z,102671.73
2019-05-13T20:49:00.063Z,102668.23
2019-05-13T20:51:08.526Z,102665.62
2019-05-13T20:53:15.711Z,102661.70
2019-05-13T20:55:22.358Z,102666.05
2019-05-13T20:57:29.201Z,102669.10
2019-05-13T20:59:35.631Z,102667.34
2019-05-13T21:01:43.552Z,102667.34
2019-05-13T21:03:51.560Z,102662.96
2019-05-13T21:05:58.753Z,102668.17
2019-05-13T21:08:05.084Z,102665.11
2019-05-13T21:10:12.293Z,102665.11
2019-05-13T21:12:19.361Z,102664.21
2019-05-13T21:14:26.003Z,102664.19
2019-05-13T21:16:32.741Z,102663.30
2019-05-13T21:18:41.851Z,102663.73
2019-05-13T21:20:47.683Z,102664.56
2019-05-13T21:22:54.482Z,102657.56
2019-05-13T21:25:02.266Z,102665.84
2019-05-13T21:27:08.608Z,102661.89
2019-05-13T21:29:15.426Z,102668.41
2019-05-13T21:31:22.355Z,102668.84
2019-05-13T21:33:31.295Z,102665.77
2019-05-13T21:35:37.103Z,102662.28
2019-05-13T21:37:43.783Z,102670.10
2019-05-13T21:39:51.710Z,102671.84
2019-05-13T21:42:02.141Z,102673.55
2019-05-13T21:44:07.993Z,102667.86
2019-05-13T21:46:14.354Z,102667.41
2019-05-13T21:48:23.697Z,102661.72
2019-05-13T21:50:36.986Z,102659.50
2019-05-13T21:52:41.733Z,102660.81
2019-05-13T21:54:48.502Z,102657.32
2019-05-13T21:56:55.075Z,102659.94
2019-05-13T21:59:01.870Z,102654.28
2019-05-13T22:01:08.606Z,102653.80
2019-05-13T22:03:16.650Z,102651.18
2019-05-13T22:05:24.928Z,102651.16
2019-05-13T22:07:32.510Z,102651.13
2019-05-13T22:09:39.197Z,102652.43
2019-05-13T22:11:45.667Z,102650.22
2019-05-13T22:13:52.246Z,102650.22
2019-05-13T22:15:58.796Z,102644.95
2019-05-13T22:18:06.195Z,102641.89
2019-05-13T22:20:14.190Z,102646.23
2019-05-13T22:22:22.083Z,102643.63
2019-05-13T22:24:28.533Z,102644.94
2019-05-13T22:26:35.005Z,102647.13
2019-05-13T22:28:41.812Z,102641.01
2019-05-13T22:30:49.052Z,102643.63
2019-05-13T22:32:56.644Z,102646.22
2019-05-13T22:35:03.119Z,102646.19
2019-05-13T22:37:11.693Z,102646.16
2019-05-13T22:39:17.682Z,102639.59
2019-05-13T22:41:24.143Z,102641.75
2019-05-13T22:43:32.009Z,102642.60
2019-05-13T22:45:38.775Z,102640.84
2019-05-13T22:47:45.089Z,102639.50
2019-05-13T22:49:51.657Z,102640.78
2019-05-13T22:51:58.025Z,102639.90
2019-05-13T22:54:04.383Z,102642.94
2019-05-13T22:56:11.969Z,102640.72
2019-05-13T22:58:18.317Z,102638.11
2019-05-13T23:00:24.857Z,102642.45
2019-05-13T23:02:33.505Z,102639.34
2019-05-13T23:04:41.709Z,102637.63
2019-05-13T23:06:47.982Z,102640.23
2019-05-13T23:08:55.887Z,102637.16
2019-05-13T23:11:02.625Z,102635.40
2019-05-13T23:13:09.126Z,102635.79
2019-05-13T23:15:17.616Z,102624.45
2019-05-13T23:17:23.973Z,102634.45
2019-05-13T23:19:32.369Z,102623.09
2019-05-13T23:21:38.556Z,102629.16
2019-05-13T23:23:45.031Z,102628.25
2019-05-13T23:25:52.622Z,102631.71
2019-05-13T23:27:58.994Z,102628.18
2019-05-13T23:30:08.213Z,102628.14
2019-05-13T23:32:14.887Z,102628.53
2019-05-13T23:34:22.333Z,102629.84
2019-05-13T23:36:31.581Z,102628.96
2019-05-13T23:38:37.871Z,102623.70
2019-05-13T23:40:45.970Z,102629.77
2019-05-13T23:42:55.280Z,102631.96
2019-05-13T23:45:01.659Z,102636.30
2019-05-13T23:47:08.136Z,102634.57
2019-05-13T23:49:14.469Z,102635.45
2019-05-13T23:51:21.633Z,102635.45
2019-05-13T23:53:31.559Z,102633.23
2019-05-13T23:55:37.569Z,102622.36
2019-05-13T23:57:44.248Z,102625.82
2019-05-13T23:59:51.184Z,102624.94
